Time;durP1;ratioP1;P1;durP2;ratioP2;P2;SDS_P1;SDS_P2;PMS_P1;PMS_P2;Temp;Humidity;BMP_temperature;BMP_pressure;BME280_temperature;BME280_humidity;BME280_pressure;Samples;Min_cycle;Max_cycle;Signal;HPM_P1;HPM_P2
2021/12/31 00:01:25;;;;;;;3.40;2.45;;;13.90;99.90;;;;;;5055303;28;20303;-59
2021/12/31 00:04:09;;;;;;;3.70;2.67;;;13.80;99.90;;;;;;5054097;28;20036;-59
2021/12/31 00:06:53;;;;;;;5.00;2.50;;;13.90;99.90;;;;;;5053513;28;20039;-60
2021/12/31 00:09:38;;;;;;;3.80;2.80;;;13.90;99.90;;;;;;5055120;28;20036;-60
2021/12/31 00:12:22;;;;;;;2.75;2.10;;;13.90;99.90;;;;;;5054636;28;20278;-61
2021/12/31 00:15:07;;;;;;;3.58;2.33;;;14.00;99.90;;;;;;5055708;28;20036;-61
2021/12/31 00:17:51;;;;;;;2.97;2.30;;;13.90;99.90;;;;;;5053541;28;20040;-61
2021/12/31 00:20:35;;;;;;;3.28;2.55;;;13.90;99.90;;;;;;5053224;28;20516;-62
2021/12/31 00:23:24;;;;;;;2.85;2.53;;;13.90;99.90;;;;;;5054518;28;20048;-60
2021/12/31 00:26:08;;;;;;;3.00;2.50;;;14.00;99.90;;;;;;5053739;28;20308;-59
2021/12/31 00:28:52;;;;;;;2.70;2.50;;;14.00;99.90;;;;;;5054668;28;20071;-58
2021/12/31 00:31:36;;;;;;;2.97;2.47;;;14.00;99.90;;;;;;5053934;28;20055;-62
2021/12/31 00:34:20;;;;;;;4.33;2.50;;;13.90;99.90;;;;;;5053067;28;20309;-59
2021/12/31 00:37:05;;;;;;;4.38;2.80;;;13.90;99.90;;;;;;5054258;28;20032;-59
2021/12/31 00:39:49;;;;;;;3.73;3.13;;;14.00;99.90;;;;;;5054453;28;20082;-59
2021/12/31 00:42:33;;;;;;;3.43;2.80;;;13.90;99.90;;;;;;5053842;28;20036;-58
2021/12/31 00:45:19;;;;;;;2.97;2.60;;;13.90;99.90;;;;;;5054256;28;20044;-58
2021/12/31 00:48:04;;;;;;;2.97;2.67;;;14.00;99.90;;;;;;5052274;28;20063;-61
2021/12/31 00:50:48;;;;;;;4.85;2.67;;;13.90;99.90;;;;;;5053779;28;20036;-58
2021/12/31 00:53:33;;;;;;;4.20;3.00;;;13.90;99.90;;;;;;5053153;28;20035;-61
2021/12/31 00:56:17;;;;;;;3.47;3.10;;;13.90;99.90;;;;;;5052204;28;20138;-60
2021/12/31 00:59:01;;;;;;;4.03;3.00;;;13.80;99.90;;;;;;5053925;28;20099;-59
2021/12/31 01:01:45;;;;;;;3.03;2.60;;;13.80;99.90;;;;;;5052604;28;20436;-61
2021/12/31 01:04:30;;;;;;;4.25;2.60;;;13.80;99.90;;;;;;5053127;28;20032;-61
2021/12/31 01:07:15;;;;;;;4.18;2.92;;;13.80;99.90;;;;;;5053799;28;20036;-58
2021/12/31 01:10:01;;;;;;;2.63;2.42;;;13.80;99.90;;;;;;5049150;28;20051;-60
2021/12/31 01:12:45;;;;;;;3.03;2.55;;;13.80;99.90;;;;;;5052415;28;20090;-59
2021/12/31 01:15:40;;;;;;;2.50;2.30;;;13.80;99.90;;;;;;5054054;28;20032;-59
2021/12/31 01:19:44;;;;;;;6.05;2.70;;;13.80;99.90;;;;;;5052713;28;20067;-60
2021/12/31 01:21:28;;;;;;;3.10;2.50;;;13.80;99.90;;;;;;5052665;28;20032;-61
2021/12/31 01:24:13;;;;;;;2.53;2.33;;;13.80;99.90;;;;;;5050132;28;20056;-57
2021/12/31 01:26:57;;;;;;;5.28;2.83;;;13.80;99.90;;;;;;5053568;28;20037;-59
2021/12/31 01:29:41;;;;;;;3.58;3.00;;;13.70;99.90;;;;;;5052074;28;20044;-58
2021/12/31 01:32:26;;;;;;;3.63;2.50;;;13.70;99.90;;;;;;5050805;28;20392;-62
2021/12/31 01:35:10;;;;;;;3.45;2.47;;;13.60;99.90;;;;;;5051574;28;20044;-60
2021/12/31 01:37:55;;;;;;;3.28;2.55;;;13.60;99.90;;;;;;5051111;28;20664;-59
2021/12/31 01:40:39;;;;;;;3.13;2.40;;;13.60;99.90;;;;;;5051495;28;20547;-60
2021/12/31 01:43:23;;;;;;;3.03;2.63;;;13.50;99.90;;;;;;5050950;28;20310;-60
2021/12/31 01:46:13;;;;;;;3.38;2.70;;;13.50;99.90;;;;;;5049912;28;20754;-60
2021/12/31 01:51:42;;;;;;;4.23;2.50;;;13.50;99.90;;;;;;5053235;28;20574;-61
2021/12/31 01:54:26;;;;;;;4.05;2.70;;;13.50;99.90;;;;;;5053596;28;20116;-58
2021/12/31 01:57:10;;;;;;;3.13;2.30;;;13.50;99.90;;;;;;5054214;28;20352;-58
2021/12/31 01:59:55;;;;;;;4.43;2.40;;;13.50;99.90;;;;;;5053952;28;20075;-60
2021/12/31 02:02:44;;;;;;;4.75;2.58;;;13.50;99.90;;;;;;5052765;28;20531;-58
2021/12/31 02:05:28;;;;;;;6.32;3.05;;;13.50;99.90;;;;;;5053746;28;20028;-59
2021/12/31 02:08:13;;;;;;;4.03;2.80;;;13.50;99.90;;;;;;5053305;28;20032;-58
2021/12/31 02:10:59;;;;;;;5.68;2.67;;;13.50;99.90;;;;;;5053210;28;20039;-59
2021/12/31 02:13:43;;;;;;;5.32;2.67;;;13.50;99.90;;;;;;5053246;28;20052;-59
2021/12/31 02:16:30;;;;;;;3.72;2.70;;;13.40;99.90;;;;;;5053068;28;20431;-58
2021/12/31 02:19:16;;;;;;;2.90;2.60;;;13.40;99.90;;;;;;5053443;28;20055;-59
2021/12/31 02:22:01;;;;;;;3.78;2.50;;;13.40;99.90;;;;;;5052244;28;20028;-57
2021/12/31 02:24:45;;;;;;;5.07;2.40;;;13.40;99.90;;;;;;5037328;28;20036;-61
2021/12/31 02:27:29;;;;;;;3.40;2.70;;;13.40;99.90;;;;;;5036452;28;20033;-60
2021/12/31 02:30:13;;;;;;;2.83;2.20;;;13.40;99.90;;;;;;5052505;28;20036;-59
2021/12/31 02:32:59;;;;;;;2.92;2.60;;;13.40;99.90;;;;;;5051866;28;20120;-60
2021/12/31 02:35:44;;;;;;;4.88;2.90;;;13.50;99.90;;;;;;5052507;28;20548;-59
2021/12/31 02:38:29;;;;;;;6.05;2.85;;;13.40;99.90;;;;;;5052754;28;20090;-59
2021/12/31 02:41:13;;;;;;;7.22;3.42;;;13.40;99.90;;;;;;5051828;28;20052;-60
2021/12/31 02:43:57;;;;;;;3.05;2.72;;;13.40;99.90;;;;;;5053059;28;20067;-60
2021/12/31 02:46:41;;;;;;;3.13;2.83;;;13.30;99.90;;;;;;5053843;28;20048;-59
2021/12/31 02:49:29;;;;;;;2.97;2.45;;;13.30;99.90;;;;;;5053277;28;20036;-60
2021/12/31 02:52:14;;;;;;;4.07;2.63;;;13.30;99.90;;;;;;5053315;28;20500;-58
2021/12/31 02:55:00;;;;;;;;;;;13.40;99.90;;;;;;5050376;28;20040;-57
2021/12/31 02:57:44;;;;;;;3.58;2.80;;;13.50;99.90;;;;;;5052989;28;19920;-60
2021/12/31 03:00:30;;;;;;;2.67;2.20;;;13.60;99.90;;;;;;5053748;28;20064;-59
2021/12/31 03:03:17;;;;;;;4.82;2.55;;;13.70;99.90;;;;;;5053243;28;20423;-60
2021/12/31 03:06:03;;;;;;;3.20;2.50;;;13.70;99.90;;;;;;5038046;28;20113;-59
2021/12/31 03:08:48;;;;;;;2.88;2.50;;;13.70;99.90;;;;;;5052770;28;20117;-60
2021/12/31 03:11:33;;;;;;;3.20;2.42;;;13.70;99.90;;;;;;5053205;28;20036;-59
2021/12/31 03:14:18;;;;;;;2.67;2.45;;;13.70;99.90;;;;;;5053296;28;20112;-58
2021/12/31 03:17:03;;;;;;;3.45;2.53;;;13.70;99.90;;;;;;5053248;28;20056;-58
2021/12/31 03:19:48;;;;;;;4.90;2.40;;;13.70;99.90;;;;;;5051861;28;20106;-59
2021/12/31 03:22:32;;;;;;;3.95;2.50;;;13.70;99.90;;;;;;5052733;28;20543;-59
2021/12/31 03:25:16;;;;;;;3.63;2.40;;;13.70;99.90;;;;;;5051188;28;20068;-60
2021/12/31 03:28:00;;;;;;;6.37;2.43;;;13.70;99.90;;;;;;5052167;28;20103;-61
2021/12/31 03:30:45;;;;;;;3.10;2.80;;;13.70;99.90;;;;;;5052120;28;20455;-58
2021/12/31 03:33:30;;;;;;;4.00;2.50;;;13.70;99.90;;;;;;5033007;28;20083;-61
2021/12/31 03:36:14;;;;;;;3.27;2.20;;;13.70;99.90;;;;;;5052777;28;20059;-61
2021/12/31 03:38:58;;;;;;;4.07;2.30;;;13.70;99.90;;;;;;5052610;28;20683;-60
2021/12/31 03:41:44;;;;;;;2.78;2.47;;;13.50;99.90;;;;;;5052350;28;20447;-60
2021/12/31 03:44:29;;;;;;;2.67;2.47;;;13.50;99.90;;;;;;5053173;28;20068;-59
2021/12/31 03:47:13;;;;;;;4.37;3.00;;;13.50;99.90;;;;;;5051965;28;20464;-60
2021/12/31 03:49:57;;;;;;;3.03;2.72;;;13.40;99.90;;;;;;5053199;28;20040;-59
2021/12/31 03:52:41;;;;;;;4.63;2.90;;;13.30;99.90;;;;;;5052738;28;20079;-62
2021/12/31 03:55:26;;;;;;;3.90;3.00;;;13.30;99.90;;;;;;5052969;28;20618;-59
2021/12/31 03:58:10;;;;;;;3.83;2.73;;;13.40;99.90;;;;;;5054940;28;20191;-59
2021/12/31 04:00:54;;;;;;;3.55;2.70;;;13.30;99.90;;;;;;5055751;28;20340;-58
2021/12/31 04:03:38;;;;;;;3.23;2.63;;;13.40;99.90;;;;;;5055908;28;20044;-61
2021/12/31 04:06:22;;;;;;;3.97;2.78;;;13.40;99.90;;;;;;5056406;28;20028;-59
2021/12/31 04:09:07;;;;;;;7.45;2.63;;;13.40;99.90;;;;;;5035726;28;20103;-60
2021/12/31 04:11:51;;;;;;;3.05;2.45;;;13.30;99.90;;;;;;5038441;28;20036;-58
2021/12/31 04:14:35;;;;;;;5.55;2.50;;;13.30;99.90;;;;;;5055990;28;20095;-58
2021/12/31 04:17:19;;;;;;;3.92;2.38;;;13.30;99.90;;;;;;5055438;28;20056;-60
2021/12/31 04:20:03;;;;;;;4.50;2.40;;;13.40;99.90;;;;;;5056507;28;20053;-53
2021/12/31 04:22:54;;;;;;;3.75;2.50;;;13.40;99.90;;;;;;5054791;28;20515;-58
2021/12/31 04:25:38;;;;;;;3.30;2.53;;;13.30;99.90;;;;;;5055672;28;20032;-57
2021/12/31 04:28:22;;;;;;;3.50;2.77;;;13.30;99.90;;;;;;5055943;28;20032;-57
2021/12/31 04:31:07;;;;;;;3.50;2.67;;;13.30;99.90;;;;;;5054883;28;20083;-54
2021/12/31 04:33:51;;;;;;;2.85;2.55;;;13.40;99.90;;;;;;5054113;28;20594;-57
2021/12/31 04:36:36;;;;;;;4.28;2.60;;;13.50;99.90;;;;;;5054274;28;20044;-57
2021/12/31 04:39:20;;;;;;;3.33;2.57;;;13.40;99.90;;;;;;5055110;28;20048;-57
2021/12/31 04:42:05;;;;;;;2.53;2.20;;;13.40;99.90;;;;;;5054770;28;20048;-55
2021/12/31 04:44:49;;;;;;;3.33;2.25;;;13.40;99.90;;;;;;5055023;28;20032;-60
2021/12/31 04:47:34;;;;;;;3.90;2.30;;;13.40;99.90;;;;;;5053344;28;20451;-57
2021/12/31 04:50:18;;;;;;;2.83;2.50;;;13.50;99.90;;;;;;5054277;28;20048;-57
2021/12/31 04:53:04;;;;;;;2.50;1.95;;;13.50;99.90;;;;;;5054477;28;20596;-55
2021/12/31 04:55:49;;;;;;;2.70;2.50;;;13.50;99.90;;;;;;5054187;28;20036;-54
2021/12/31 04:58:33;;;;;;;2.20;2.00;;;13.50;99.90;;;;;;5054048;28;20068;-55
2021/12/31 05:01:21;;;;;;;2.50;2.30;;;13.50;99.90;;;;;;5054595;28;20040;-58
2021/12/31 05:04:05;;;;;;;2.08;1.88;;;13.50;99.90;;;;;;5055124;28;20317;-54
2021/12/31 05:06:50;;;;;;;4.18;1.92;;;13.50;99.90;;;;;;5040428;28;20024;-53
2021/12/31 05:09:34;;;;;;;4.68;2.00;;;13.60;99.90;;;;;;5053774;28;20083;-56
2021/12/31 05:12:24;;;;;;;2.90;2.00;;;13.60;99.90;;;;;;5052284;28;20124;-55
2021/12/31 05:15:10;;;;;;;2.60;2.13;;;13.50;99.90;;;;;;5052549;28;20048;-54
2021/12/31 05:17:55;;;;;;;4.20;2.35;;;13.60;99.90;;;;;;5052348;28;20376;-54
2021/12/31 05:20:40;;;;;;;2.72;1.95;;;13.60;99.90;;;;;;5051724;28;20575;-58
2021/12/31 05:23:24;;;;;;;4.30;2.20;;;13.60;99.90;;;;;;5052094;28;20090;-56
2021/12/31 05:26:08;;;;;;;2.20;2.00;;;13.70;99.90;;;;;;5052156;28;20083;-56
2021/12/31 05:28:52;;;;;;;2.83;1.90;;;13.70;99.90;;;;;;5052537;28;20044;-55
2021/12/31 05:31:36;;;;;;;2.43;1.97;;;13.60;99.90;;;;;;5051205;28;20639;-53
2021/12/31 05:34:20;;;;;;;3.27;2.27;;;13.60;99.90;;;;;;5052270;28;20032;-57
2021/12/31 05:37:04;;;;;;;2.30;2.10;;;13.60;99.90;;;;;;5052355;28;20028;-58
2021/12/31 05:39:48;;;;;;;3.40;2.30;;;13.60;99.90;;;;;;5037234;28;20146;-56
2021/12/31 05:42:32;;;;;;;2.35;2.15;;;13.60;99.90;;;;;;5051977;28;20040;-53
2021/12/31 05:45:17;;;;;;;2.95;2.20;;;13.50;99.90;;;;;;5052442;28;20091;-54
2021/12/31 05:48:01;;;;;;;2.53;2.05;;;13.60;99.90;;;;;;5051811;28;20646;-57
2021/12/31 05:50:45;;;;;;;2.10;1.90;;;13.60;99.90;;;;;;5052561;28;20116;-59
2021/12/31 05:53:29;;;;;;;3.97;2.13;;;13.50;99.90;;;;;;5050426;28;20064;-56
2021/12/31 05:56:14;;;;;;;2.30;2.00;;;13.60;99.90;;;;;;5051603;28;20181;-57
2021/12/31 05:58:58;;;;;;;2.85;2.35;;;13.60;99.90;;;;;;5052204;28;20043;-59
2021/12/31 06:01:42;;;;;;;2.40;2.20;;;13.60;99.90;;;;;;5052835;28;20093;-56
2021/12/31 06:04:26;;;;;;;2.93;2.40;;;13.60;99.90;;;;;;5058160;28;20270;-56
2021/12/31 06:07:10;;;;;;;3.45;2.75;;;13.60;99.90;;;;;;5059615;28;20032;-54
2021/12/31 06:09:54;;;;;;;3.42;2.40;;;13.70;99.90;;;;;;5052310;28;20420;-55
2021/12/31 06:12:39;;;;;;;2.87;2.47;;;13.70;99.90;;;;;;5052000;28;20396;-53
2021/12/31 06:15:25;;;;;;;2.65;2.40;;;13.70;99.90;;;;;;5051643;28;20493;-56
2021/12/31 06:18:10;;;;;;;3.05;2.33;;;13.70;99.90;;;;;;5051351;28;20621;-57
2021/12/31 06:20:54;;;;;;;2.80;2.08;;;13.70;99.90;;;;;;5050934;28;20048;-57
2021/12/31 06:23:38;;;;;;;3.85;2.45;;;13.70;99.90;;;;;;5051101;28;20040;-54
2021/12/31 06:26:22;;;;;;;3.30;2.30;;;13.70;99.90;;;;;;5052968;28;20044;-55
2021/12/31 06:29:07;;;;;;;2.50;2.20;;;13.70;99.90;;;;;;5058482;28;20798;-54
2021/12/31 06:31:50;;;;;;;2.85;2.40;;;13.70;99.90;;;;;;5050391;28;20515;-53
2021/12/31 06:34:35;;;;;;;2.58;2.30;;;13.70;99.90;;;;;;5051089;28;20048;-57
2021/12/31 06:37:19;;;;;;;2.20;2.00;;;13.70;99.90;;;;;;5050878;28;20086;-56
2021/12/31 06:40:06;;;;;;;2.47;2.00;;;13.70;99.90;;;;;;5050270;28;20333;-57
2021/12/31 06:42:51;;;;;;;3.10;2.30;;;13.60;99.90;;;;;;5049615;28;20043;-58
2021/12/31 06:45:35;;;;;;;5.72;2.40;;;13.60;99.90;;;;;;5050928;28;20091;-58
2021/12/31 06:48:19;;;;;;;2.97;2.53;;;13.60;99.90;;;;;;5050233;28;20459;-60
2021/12/31 06:51:03;;;;;;;3.80;2.33;;;13.60;99.90;;;;;;5050881;28;20035;-57
2021/12/31 06:53:48;;;;;;;2.40;2.20;;;13.60;99.90;;;;;;5050743;28;20167;-57
2021/12/31 06:56:32;;;;;;;3.13;2.37;;;13.60;99.90;;;;;;5050813;28;20078;-57
2021/12/31 06:59:16;;;;;;;3.83;2.60;;;13.60;99.90;;;;;;5051215;28;20117;-56
2021/12/31 07:02:00;;;;;;;4.30;2.53;;;13.60;99.90;;;;;;5050457;28;20117;-57
2021/12/31 07:04:44;;;;;;;3.63;3.13;;;13.60;99.90;;;;;;5050711;28;20051;-55
2021/12/31 07:07:28;;;;;;;5.22;3.13;;;13.60;99.90;;;;;;5034012;28;20056;-57
2021/12/31 07:10:12;;;;;;;5.20;2.60;;;13.60;99.90;;;;;;5050473;28;20163;-57
2021/12/31 07:13:01;;;;;;;6.87;3.23;;;13.60;99.90;;;;;;5050260;28;20059;-53
2021/12/31 07:15:49;;;;;;;4.63;2.75;;;13.60;99.90;;;;;;5049987;28;20603;-58
2021/12/31 07:18:38;;;;;;;5.28;3.20;;;13.60;99.90;;;;;;5050377;28;20035;-57
2021/12/31 07:21:23;;;;;;;6.25;2.70;;;13.60;99.90;;;;;;5050301;28;20047;-59
2021/12/31 07:24:07;;;;;;;4.57;2.88;;;13.60;99.90;;;;;;5051206;28;20083;-57
2021/12/31 07:26:51;;;;;;;3.90;2.97;;;13.70;99.90;;;;;;5052720;28;20048;-55
2021/12/31 07:29:35;;;;;;;7.53;2.70;;;13.60;99.90;;;;;;5052839;28;20420;-57
2021/12/31 07:32:19;;;;;;;5.17;2.97;;;13.70;99.90;;;;;;5056711;28;20044;-58
2021/12/31 07:35:04;;;;;;;8.52;2.80;;;13.70;99.90;;;;;;5056674;28;20693;-59
2021/12/31 07:37:49;;;;;;;3.65;2.70;;;13.70;99.90;;;;;;5040696;28;20072;-55
2021/12/31 07:40:41;;;;;;;3.50;2.70;;;13.70;99.90;;;;;;5055794;28;20075;-59
2021/12/31 07:43:25;;;;;;;6.28;2.92;;;13.70;99.90;;;;;;5055316;28;20048;-58
2021/12/31 07:46:12;;;;;;;5.63;3.10;;;13.60;99.90;;;;;;5049431;28;20052;-57
2021/12/31 07:48:56;;;;;;;6.10;2.97;;;13.70;99.90;;;;;;5035262;28;20039;-60
2021/12/31 07:51:40;;;;;;;6.85;3.35;;;13.70;99.90;;;;;;5038844;28;20044;-55
2021/12/31 07:54:24;;;;;;;3.90;2.90;;;13.60;99.90;;;;;;5055742;28;20058;-53
2021/12/31 07:57:09;;;;;;;4.80;3.22;;;13.60;99.90;;;;;;5054400;28;20362;-55
2021/12/31 07:59:53;;;;;;;3.43;2.77;;;13.70;99.90;;;;;;5055814;28;20040;-57
2021/12/31 08:02:37;;;;;;;3.10;2.58;;;13.60;99.90;;;;;;5055974;28;20290;-55
2021/12/31 08:05:23;;;;;;;4.95;3.08;;;13.70;99.90;;;;;;5055885;28;20063;-57
2021/12/31 08:08:07;;;;;;;5.75;2.72;;;13.70;99.90;;;;;;5055721;28;20381;-54
2021/12/31 08:10:52;;;;;;;3.20;2.60;;;13.70;99.90;;;;;;5054571;28;20122;-57
2021/12/31 08:13:36;;;;;;;4.43;2.75;;;13.70;99.90;;;;;;5056028;28;20040;-57
2021/12/31 08:16:20;;;;;;;3.85;2.83;;;13.80;99.90;;;;;;5055384;28;20560;-57
2021/12/31 08:19:06;;;;;;;4.00;2.70;;;13.80;99.90;;;;;;5054887;28;20090;-56
2021/12/31 08:21:51;;;;;;;4.47;2.92;;;13.80;99.90;;;;;;5054437;28;20033;-56
2021/12/31 08:24:35;;;;;;;4.95;3.58;;;13.90;99.90;;;;;;5053865;28;20043;-60
2021/12/31 08:27:19;;;;;;;4.93;3.17;;;13.90;99.90;;;;;;5034048;28;20505;-59
2021/12/31 08:30:03;;;;;;;6.23;2.80;;;13.90;99.90;;;;;;5048827;28;20051;-55
2021/12/31 08:32:47;;;;;;;4.32;2.88;;;13.90;99.90;;;;;;5054710;28;20266;-57
2021/12/31 08:35:31;;;;;;;5.10;2.92;;;13.90;99.90;;;;;;5054165;28;20547;-59
2021/12/31 08:38:16;;;;;;;4.50;2.75;;;14.00;99.90;;;;;;5055301;28;20044;-57
2021/12/31 08:41:01;;;;;;;5.97;2.80;;;14.00;99.90;;;;;;5054053;28;20095;-56
2021/12/31 08:43:45;;;;;;;4.10;2.88;;;14.00;99.90;;;;;;5051684;28;20063;-57
2021/12/31 08:46:30;;;;;;;4.88;2.80;;;14.10;99.90;;;;;;5046410;28;20083;-58
2021/12/31 08:49:15;;;;;;;6.00;2.80;;;14.00;99.90;;;;;;5053013;28;20056;-61
2021/12/31 08:52:00;;;;;;;6.97;3.22;;;14.10;99.90;;;;;;5054128;28;20040;-60
2021/12/31 08:54:44;;;;;;;3.95;2.75;;;14.10;99.90;;;;;;5053931;28;20095;-58
2021/12/31 08:57:29;;;;;;;3.85;3.03;;;14.10;99.90;;;;;;5052491;28;20036;-62
2021/12/31 09:00:13;;;;;;;7.22;3.00;;;14.00;99.90;;;;;;5039994;28;20056;-57
2021/12/31 09:02:58;;;;;;;4.47;2.67;;;14.10;99.90;;;;;;5054774;28;20036;-59
2021/12/31 09:05:42;;;;;;;4.87;3.00;;;14.10;99.90;;;;;;5055096;28;20076;-62
2021/12/31 09:08:26;;;;;;;4.70;3.13;;;14.20;99.90;;;;;;5056064;28;20036;-59
2021/12/31 09:11:10;;;;;;;4.60;2.97;;;14.20;99.90;;;;;;5054214;28;20071;-57
2021/12/31 09:13:55;;;;;;;4.15;2.72;;;14.20;99.90;;;;;;5055404;28;20047;-61
2021/12/31 09:16:40;;;;;;;4.53;2.50;;;14.20;99.90;;;;;;5055196;28;20040;-55
2021/12/31 09:19:24;;;;;;;4.27;2.73;;;14.20;99.90;;;;;;5053760;28;20052;-56
2021/12/31 09:22:09;;;;;;;4.17;2.53;;;14.30;99.90;;;;;;5054137;28;20322;-58
2021/12/31 09:24:53;;;;;;;3.38;2.75;;;14.20;99.90;;;;;;5053110;28;20049;-57
2021/12/31 09:27:37;;;;;;;4.97;2.70;;;14.30;99.90;;;;;;5054226;28;20032;-51
2021/12/31 09:30:21;;;;;;;3.57;2.70;;;14.40;99.90;;;;;;5054173;28;20135;-51
2021/12/31 09:33:05;;;;;;;3.97;2.75;;;14.50;99.90;;;;;;5054099;28;20063;-54
2021/12/31 09:35:50;;;;;;;3.50;2.60;;;14.60;99.90;;;;;;5053124;28;20044;-56
2021/12/31 09:38:34;;;;;;;3.93;2.83;;;14.60;99.90;;;;;;5054615;28;20095;-58
2021/12/31 09:41:18;;;;;;;5.78;2.67;;;14.60;99.90;;;;;;5054476;28;20340;-52
2021/12/31 09:44:03;;;;;;;6.63;2.78;;;14.70;99.90;;;;;;5054027;28;20051;-56
2021/12/31 09:46:47;;;;;;;3.58;2.50;;;14.70;99.90;;;;;;5054782;28;20028;-60
2021/12/31 09:49:31;;;;;;;4.82;2.95;;;14.70;99.90;;;;;;5053830;28;20094;-56
2021/12/31 09:52:18;;;;;;;3.50;2.50;;;14.70;99.90;;;;;;5052553;28;20051;-55
2021/12/31 09:55:02;;;;;;;4.15;2.70;;;14.80;99.90;;;;;;5051958;28;20512;-57
2021/12/31 09:57:47;;;;;;;3.42;2.90;;;14.80;99.90;;;;;;5051514;28;20040;-54
2021/12/31 10:00:31;;;;;;;4.78;2.90;;;14.90;99.90;;;;;;5051639;28;20129;-53
2021/12/31 10:03:27;;;;;;;3.37;2.53;;;14.90;99.90;;;;;;5051682;28;20040;-56
2021/12/31 10:06:16;;;;;;;4.47;2.72;;;14.80;99.90;;;;;;5033965;28;20079;-57
2021/12/31 10:09:03;;;;;;;4.75;2.50;;;14.90;99.90;;;;;;5043159;28;20392;-54
2021/12/31 10:11:47;;;;;;;3.85;2.80;;;14.90;99.90;;;;;;5054120;28;20619;-55
2021/12/31 10:14:39;;;;;;;4.23;2.73;;;14.90;99.90;;;;;;5054072;28;20203;-55
2021/12/31 10:17:34;;;;;;;4.75;3.50;;;15.10;99.90;;;;;;5051203;28;20040;-56
2021/12/31 10:20:19;;;;;;;;;;;15.10;99.90;;;;;;5052138;28;20090;-56
2021/12/31 10:23:15;;;;;;;3.08;2.78;;;15.10;99.90;;;;;;5046415;28;19930;-53
2021/12/31 10:26:09;;;;;;;4.05;2.60;;;15.10;99.90;;;;;;5047595;28;20044;-62
2021/12/31 10:28:58;;;;;;;3.88;2.80;;;15.20;99.90;;;;;;5043988;28;20087;-56
2021/12/31 10:31:43;;;;;;;6.47;2.70;;;15.20;99.90;;;;;;5050564;28;20025;-58
2021/12/31 10:34:37;;;;;;;4.90;2.72;;;15.20;99.90;;;;;;5050250;28;20071;-59
2021/12/31 10:37:26;;;;;;;2.78;2.20;;;15.10;99.90;;;;;;5053909;28;20063;-62
2021/12/31 10:40:11;;;;;;;5.43;3.08;;;15.10;99.90;;;;;;5053541;28;20178;-52
2021/12/31 10:43:15;;;;;;;3.92;2.38;;;15.10;99.90;;;;;;5052411;28;20072;-56
2021/12/31 10:46:05;;;;;;;3.20;2.47;;;15.20;99.90;;;;;;5052022;28;20036;-51
2021/12/31 10:48:54;;;;;;;3.72;2.65;;;15.10;99.90;;;;;;5051763;28;20100;-56
2021/12/31 10:51:43;;;;;;;4.63;2.60;;;15.10;99.90;;;;;;5036994;28;20059;-55
2021/12/31 10:54:30;;;;;;;3.30;2.60;;;15.20;99.90;;;;;;5053100;28;20036;-66
2021/12/31 10:57:34;;;;;;;5.57;2.60;;;15.20;99.90;;;;;;5038285;28;20128;-52
2021/12/31 11:00:20;;;;;;;5.70;2.88;;;15.20;99.90;;;;;;5052853;28;20036;-51
2021/12/31 11:03:05;;;;;;;5.45;2.85;;;15.20;99.90;;;;;;5052050;28;20155;-56
2021/12/31 11:05:50;;;;;;;3.03;2.50;;;15.20;99.90;;;;;;5054864;28;20096;-59
2021/12/31 11:08:34;;;;;;;4.70;3.10;;;15.20;99.90;;;;;;5057058;28;20060;-56
2021/12/31 11:11:19;;;;;;;;;;;15.20;99.90;;;;;;5054124;28;20040;-55
2021/12/31 11:14:04;;;;;;;5.93;2.90;;;15.10;99.90;;;;;;5054407;28;19967;-64
2021/12/31 11:16:48;;;;;;;3.65;2.72;;;15.30;99.90;;;;;;5053022;28;20071;-59
2021/12/31 11:19:39;;;;;;;3.40;2.88;;;15.30;99.90;;;;;;5065732;28;20051;-56
2021/12/31 11:22:26;;;;;;;4.38;2.63;;;15.10;99.90;;;;;;5052878;28;20052;-58
2021/12/31 11:25:17;;;;;;;5.13;2.70;;;15.10;99.90;;;;;;5053552;28;20459;-60
2021/12/31 11:28:01;;;;;;;4.15;2.85;;;15.20;99.90;;;;;;5049639;28;20036;-55
2021/12/31 11:30:48;;;;;;;3.63;2.95;;;15.10;99.90;;;;;;5050036;28;20040;-58
2021/12/31 11:33:32;;;;;;;3.80;2.78;;;15.20;99.90;;;;;;5045537;28;20087;-56
2021/12/31 11:36:16;;;;;;;4.30;3.00;;;15.20;99.90;;;;;;5054053;28;20039;-53
2021/12/31 11:39:15;;;;;;;4.28;2.83;;;15.20;99.90;;;;;;5041262;28;20086;-57
2021/12/31 11:42:01;;;;;;;3.50;2.67;;;15.20;99.90;;;;;;5048594;28;20052;-58
2021/12/31 11:45:05;;;;;;;4.38;2.75;;;15.20;99.90;;;;;;5053828;28;20078;-61
2021/12/31 11:47:49;;;;;;;3.88;2.65;;;15.20;99.90;;;;;;5053778;28;20040;-57
2021/12/31 11:50:34;;;;;;;4.40;3.20;;;15.20;99.90;;;;;;5044348;28;20028;-56
2021/12/31 11:53:18;;;;;;;4.25;3.05;;;15.10;99.90;;;;;;5053812;28;20071;-59
2021/12/31 11:56:03;;;;;;;5.97;3.15;;;15.00;99.90;;;;;;5051258;28;20051;-59
2021/12/31 11:58:47;;;;;;;5.63;3.40;;;15.00;99.90;;;;;;5054042;28;20040;-60
2021/12/31 12:01:37;;;;;;;4.25;3.00;;;15.00;99.90;;;;;;5053415;28;20040;-61
2021/12/31 12:04:22;;;;;;;4.90;3.03;;;14.90;99.90;;;;;;5052502;28;20459;-58
2021/12/31 12:07:26;;;;;;;;;;;14.90;99.90;;;;;;5047392;28;20396;-56
2021/12/31 12:10:13;;;;;;;3.20;2.70;;;14.90;99.90;;;;;;5044287;28;19920;-56
2021/12/31 12:13:21;;;;;;;5.85;3.25;;;14.90;99.90;;;;;;5033481;28;20107;-57
2021/12/31 12:16:07;;;;;;;3.97;2.95;;;15.00;99.90;;;;;;5060792;28;20037;-61
2021/12/31 12:18:54;;;;;;;4.40;3.08;;;15.10;99.90;;;;;;5047140;28;20035;-59
2021/12/31 12:21:38;;;;;;;4.32;2.80;;;15.00;99.90;;;;;;5042131;28;20036;-53
2021/12/31 12:24:23;;;;;;;3.90;3.10;;;15.00;99.90;;;;;;5023258;28;20055;-57
2021/12/31 12:27:08;;;;;;;7.47;3.10;;;14.90;99.90;;;;;;5052302;28;20051;-58
2021/12/31 12:29:54;;;;;;;6.10;3.60;;;14.90;99.90;;;;;;5052771;28;20055;-60
2021/12/31 12:32:52;;;;;;;4.35;2.92;;;15.00;99.90;;;;;;5048464;28;20087;-58
2021/12/31 12:35:45;;;;;;;3.40;2.88;;;15.00;99.90;;;;;;5059687;28;20530;-59
2021/12/31 12:38:33;;;;;;;4.38;2.90;;;14.90;99.90;;;;;;5057052;28;20143;-67
2021/12/31 12:41:20;;;;;;;3.67;2.78;;;14.90;99.90;;;;;;5039056;28;20076;-55
2021/12/31 12:44:08;;;;;;;3.63;2.58;;;14.90;99.90;;;;;;5046247;28;20079;-55
2021/12/31 12:46:58;;;;;;;4.72;2.78;;;14.80;99.90;;;;;;5046635;28;20172;-53
2021/12/31 12:49:57;;;;;;;4.22;2.90;;;14.70;99.90;;;;;;5040554;28;20163;-54
2021/12/31 12:52:52;;;;;;;3.83;2.40;;;14.80;99.90;;;;;;5052717;28;20032;-57
2021/12/31 12:55:39;;;;;;;3.67;2.72;;;14.80;99.90;;;;;;5052332;28;20036;-57
2021/12/31 12:58:24;;;;;;;4.00;3.00;;;14.70;99.90;;;;;;5052623;28;20095;-58
2021/12/31 13:01:10;;;;;;;4.25;3.10;;;14.70;99.90;;;;;;5053084;28;20082;-59
2021/12/31 13:03:55;;;;;;;3.88;2.75;;;14.60;99.90;;;;;;5035339;28;20120;-52
2021/12/31 13:06:42;;;;;;;3.70;3.05;;;14.70;99.90;;;;;;5065711;28;20078;-63
2021/12/31 13:09:31;;;;;;;3.83;3.00;;;14.70;99.90;;;;;;5055111;28;20068;-55
2021/12/31 13:12:17;;;;;;;3.58;3.00;;;14.70;99.90;;;;;;5046094;28;20044;-56
2021/12/31 13:15:04;;;;;;;4.00;2.90;;;14.70;99.90;;;;;;5048460;28;20118;-58
2021/12/31 13:18:07;;;;;;;4.20;3.47;;;14.70;99.90;;;;;;5054963;28;20118;-59
2021/12/31 13:21:03;;;;;;;6.03;3.10;;;14.70;99.90;;;;;;5053023;28;20043;-60
2021/12/31 13:23:52;;;;;;;5.47;3.47;;;14.80;99.90;;;;;;5034780;28;20047;-57
2021/12/31 13:26:37;;;;;;;4.85;3.45;;;14.70;99.90;;;;;;5047501;28;20040;-57
2021/12/31 13:29:37;;;;;;;4.18;3.28;;;14.60;99.90;;;;;;5053526;28;20091;-60
2021/12/31 13:32:22;;;;;;;8.63;3.28;;;14.50;99.90;;;;;;5052940;28;20044;-57
2021/12/31 13:35:09;;;;;;;3.92;3.13;;;14.50;99.90;;;;;;5039190;28;20526;-57
2021/12/31 13:38:00;;;;;;;5.35;3.08;;;14.50;99.90;;;;;;5054804;28;20048;-55
2021/12/31 13:40:49;;;;;;;5.97;3.38;;;14.40;99.90;;;;;;5054338;28;20510;-56
2021/12/31 13:43:34;;;;;;;4.80;3.50;;;14.40;99.90;;;;;;5054148;28;20055;-57
2021/12/31 13:46:40;;;;;;;6.38;3.95;;;14.40;99.90;;;;;;5054240;28;20495;-58
2021/12/31 13:49:25;;;;;;;5.13;3.70;;;14.40;99.90;;;;;;5053752;28;20068;-57
2021/12/31 13:52:20;;;;;;;5.88;4.35;;;14.40;99.90;;;;;;5053732;28;20383;-59
2021/12/31 13:55:30;;;;;;;4.88;3.25;;;14.30;99.90;;;;;;5053783;28;20527;-60
2021/12/31 13:58:25;;;;;;;4.45;3.20;;;14.30;99.90;;;;;;5052466;28;20471;-58
2021/12/31 14:01:12;;;;;;;3.50;2.80;;;14.20;99.90;;;;;;5047176;28;20550;-57
2021/12/31 14:04:10;;;;;;;3.90;2.97;;;14.10;99.90;;;;;;5043007;28;20124;-57
2021/12/31 14:07:00;;;;;;;2.90;2.60;;;14.10;99.90;;;;;;5047893;28;20033;-57
2021/12/31 14:09:46;;;;;;;4.35;2.90;;;14.10;99.90;;;;;;5053166;28;20516;-56
2021/12/31 14:12:41;;;;;;;5.25;2.90;;;14.10;99.90;;;;;;5054645;28;20074;-55
2021/12/31 14:15:46;;;;;;;4.78;2.90;;;14.10;99.90;;;;;;5053508;28;20108;-55
2021/12/31 14:18:30;;;;;;;3.30;2.80;;;14.00;99.90;;;;;;5039211;28;20075;-57
2021/12/31 14:21:14;;;;;;;4.72;3.17;;;14.10;99.90;;;;;;5053477;28;20090;-56
2021/12/31 14:23:58;;;;;;;4.30;2.87;;;14.10;99.90;;;;;;5045373;28;20044;-52
2021/12/31 14:26:45;;;;;;;5.30;3.08;;;14.10;99.90;;;;;;5038055;28;20095;-54
2021/12/31 14:29:30;;;;;;;4.85;2.70;;;14.10;99.90;;;;;;5042499;28;20036;-56